createdAt,value
2022-12-13T00:00:23.823Z,47.50
2022-12-13T00:02:25.368Z,47.28
2022-12-13T00:04:27.008Z,47.99
2022-12-13T00:06:29.732Z,47.60
2022-12-13T00:08:32.859Z,47.80
2022-12-13T00:10:34.443Z,47.86
2022-12-13T00:12:35.982Z,47.90
2022-12-13T00:14:37.442Z,48.22
2022-12-13T00:16:38.955Z,47.93
2022-12-13T00:18:40.852Z,48.28
2022-12-13T00:20:42.338Z,48.43
2022-12-13T00:22:43.823Z,48.43
2022-12-13T00:24:46.705Z,48.84
2022-12-13T00:26:48.259Z,49.40
2022-12-13T00:28:50.734Z,49.16
2022-12-13T00:30:56.833Z,48.91
2022-12-13T00:32:58.398Z,48.86
2022-12-13T00:34:59.863Z,48.57
2022-12-13T00:37:01.304Z,48.33
2022-12-13T00:39:03.052Z,48.18
2022-12-13T00:41:14.564Z,47.97
2022-12-13T00:43:16.132Z,47.95
2022-12-13T00:45:17.877Z,48.43
2022-12-13T00:47:19.326Z,48.41
2022-12-13T00:49:20.807Z,47.71
2022-12-13T00:51:24.475Z,48.70
2022-12-13T00:53:25.996Z,48.28
2022-12-13T00:55:27.699Z,48.27
2022-12-13T00:57:30.592Z,47.91
2022-12-13T00:59:32.123Z,47.74
2022-12-13T01:01:36.392Z,48.44
2022-12-13T01:03:41.603Z,48.09
2022-12-13T01:06:13.588Z,48.57
2022-12-13T01:08:04.714Z,48.44
2022-12-13T01:10:07.842Z,48.20
2022-12-13T01:12:10.122Z,48.19
2022-12-13T01:14:13.169Z,47.68
2022-12-13T01:16:15.083Z,47.46
2022-12-13T01:18:16.691Z,47.61
2022-12-13T01:20:20.901Z,47.67
2022-12-13T01:22:22.952Z,47.80
2022-12-13T01:24:24.483Z,47.90
2022-12-13T01:26:26.009Z,47.95
2022-12-13T01:28:27.599Z,48.06
2022-12-13T01:30:30.517Z,48.27
2022-12-13T01:32:32.012Z,48.28
2022-12-13T01:34:33.538Z,48.83
2022-12-13T01:36:38.188Z,48.86
2022-12-13T01:38:40.145Z,48.22
2022-12-13T01:40:44.531Z,48.21
2022-12-13T01:42:45.996Z,48.58
2022-12-13T01:45:22.496Z,48.24
2022-12-13T01:47:31.568Z,48.68
2022-12-13T01:49:33.174Z,48.70
2022-12-13T01:51:40.896Z,48.68
2022-12-13T01:53:45.682Z,48.78
2022-12-13T01:55:50.821Z,48.54
2022-12-13T01:57:54.693Z,48.39
2022-12-13T01:59:56.390Z,48.66
2022-12-13T02:02:01.101Z,49.07
2022-12-13T02:04:04.459Z,49.45
2022-12-13T02:06:11.947Z,49.22
2022-12-13T02:08:15.597Z,49.72
2022-12-13T02:10:17.656Z,49.33
2022-12-13T02:12:19.331Z,49.23
2022-12-13T02:14:20.859Z,49.61
2022-12-13T02:16:37.475Z,49.71
2022-12-13T02:18:52.079Z,49.36
2022-12-13T02:21:04.286Z,49.17
2022-12-13T02:23:24.243Z,49.60
2022-12-13T02:26:06.175Z,49.30
2022-12-13T02:28:31.433Z,49.46
2022-12-13T02:30:39.505Z,49.92
2022-12-13T02:32:56.365Z,50.06
2022-12-13T02:35:03.837Z,50.68
2022-12-13T02:37:18.071Z,51.00
2022-12-13T02:39:30.681Z,51.54
2022-12-13T02:41:37.481Z,52.07
2022-12-13T02:43:46.027Z,52.36
2022-12-13T02:45:51.573Z,52.40
2022-12-13T02:47:56.342Z,52.28
2022-12-13T02:50:02.647Z,52.12
2022-12-13T02:52:07.670Z,52.24
2022-12-13T02:54:09.186Z,51.64
2022-12-13T02:56:11.728Z,51.58
2022-12-13T02:58:13.964Z,51.53
2022-12-13T03:00:19.235Z,51.12
2022-12-13T03:02:31.629Z,51.33
2022-12-13T03:04:42.847Z,51.71
2022-12-13T03:06:53.751Z,51.47
2022-12-13T03:09:03.074Z,51.93
2022-12-13T03:11:07.488Z,51.80
2022-12-13T03:13:19.581Z,51.75
2022-12-13T03:15:26.790Z,52.40
2022-12-13T03:17:36.298Z,52.70
2022-12-13T03:19:37.942Z,52.13
2022-12-13T03:21:45.718Z,51.77
2022-12-13T03:23:49.586Z,52.86
2022-12-13T03:25:55.356Z,53.09
2022-12-13T03:27:56.838Z,52.18
2022-12-13T03:30:06.995Z,52.41
2022-12-13T03:32:08.690Z,52.92
2022-12-13T03:34:11.521Z,52.51
2022-12-13T03:36:13.689Z,52.06
2022-12-13T03:38:21.881Z,51.18
2022-12-13T03:40:24.608Z,51.72
2022-12-13T03:42:26.289Z,51.80
2022-12-13T03:44:31.364Z,52.27
2022-12-13T03:46:33.609Z,52.31
2022-12-13T03:48:35.215Z,52.09
2022-12-13T03:50:38.090Z,52.35
2022-12-13T03:52:39.600Z,51.60
2022-12-13T03:54:41.226Z,52.18
2022-12-13T03:56:46.929Z,52.20
2022-12-13T03:58:48.423Z,51.76
2022-12-13T04:00:49.987Z,51.23
2022-12-13T04:02:51.723Z,51.98
2022-12-13T04:04:53.301Z,51.35
2022-12-13T04:06:56.221Z,51.00
2022-12-13T04:08:57.724Z,50.68
2022-12-13T04:10:59.314Z,50.65
2022-12-13T04:13:00.884Z,50.92
2022-12-13T04:15:02.590Z,50.41
2022-12-13T04:17:04.099Z,51.30
2022-12-13T04:19:05.640Z,50.97
2022-12-13T04:21:07.128Z,51.76
2022-12-13T04:23:10.641Z,51.32
2022-12-13T04:25:12.553Z,51.61
2022-12-13T04:27:14.176Z,52.13
2022-12-13T04:29:15.873Z,52.18
2022-12-13T04:31:17.381Z,52.44
2022-12-13T04:33:18.938Z,52.58
2022-12-13T04:35:20.561Z,52.11
2022-12-13T04:37:24.230Z,51.70
2022-12-13T04:39:27.133Z,51.64
2022-12-13T04:41:36.815Z,51.06
2022-12-13T04:43:38.356Z,51.19
2022-12-13T04:45:40.112Z,50.66
2022-12-13T04:47:42.560Z,49.91
2022-12-13T04:49:44.099Z,50.68
2022-12-13T04:51:47.581Z,50.60
2022-12-13T04:53:49.803Z,49.82
2022-12-13T04:55:52.704Z,49.88
2022-12-13T04:57:54.178Z,50.43
2022-12-13T04:59:55.743Z,50.20
2022-12-13T05:01:57.360Z,50.57
2022-12-13T05:03:58.917Z,50.38
2022-12-13T05:06:04.774Z,50.75
2022-12-13T05:08:06.407Z,50.96
2022-12-13T05:10:08.574Z,51.06
2022-12-13T05:12:13.042Z,51.50
2022-12-13T05:14:24.695Z,51.68
2022-12-13T05:16:26.286Z,51.31
2022-12-13T05:18:28.623Z,50.87
2022-12-13T05:20:30.132Z,50.74
2022-12-13T05:22:31.581Z,51.22
2022-12-13T05:24:33.074Z,50.83
2022-12-13T05:26:34.603Z,50.71
2022-12-13T05:28:37.452Z,50.50
2022-12-13T05:30:39.456Z,51.35
2022-12-13T05:32:43.871Z,50.82
2022-12-13T05:34:46.378Z,51.26
2022-12-13T05:36:47.896Z,51.67
2022-12-13T05:38:49.415Z,51.58
2022-12-13T05:40:50.990Z,51.34
2022-12-13T05:43:01.202Z,51.19
2022-12-13T05:45:06.351Z,51.03
2022-12-13T05:47:07.888Z,50.52
2022-12-13T05:49:09.368Z,50.13
2022-12-13T05:51:12.158Z,50.64
2022-12-13T05:53:13.790Z,50.30
2022-12-13T05:55:32.976Z,49.66
2022-12-13T05:57:34.800Z,49.28
2022-12-13T05:59:36.400Z,49.86
2022-12-13T06:01:43.892Z,49.92
2022-12-13T06:03:46.421Z,49.75
2022-12-13T06:05:47.990Z,50.21
2022-12-13T06:07:53.612Z,50.01
2022-12-13T06:10:10.431Z,49.80
2022-12-13T06:12:32.009Z,49.44
2022-12-13T06:14:33.935Z,49.25
2022-12-13T06:16:35.518Z,49.01
2022-12-13T06:18:38.520Z,48.96
2022-12-13T06:20:39.967Z,48.89
2022-12-13T06:22:41.517Z,48.70
2022-12-13T06:24:43.096Z,49.73
2022-12-13T06:26:46.074Z,49.55
2022-12-13T06:28:47.912Z,49.88
2022-12-13T06:30:49.644Z,49.82
2022-12-13T06:32:52.317Z,49.52
2022-12-13T06:34:55.158Z,49.68
2022-12-13T06:36:58.483Z,49.52
2022-12-13T06:39:02.942Z,49.16
2022-12-13T06:41:09.265Z,49.46
2022-12-13T06:43:10.804Z,49.11
2022-12-13T06:45:12.258Z,48.77
2022-12-13T06:47:30.987Z,48.89
2022-12-13T06:49:34.649Z,48.80
2022-12-13T06:51:37.599Z,48.68
2022-12-13T06:53:40.401Z,48.61
2022-12-13T06:55:41.944Z,48.76
2022-12-13T06:57:43.451Z,48.38
2022-12-13T06:59:45.163Z,48.19
2022-12-13T07:01:50.840Z,48.35
2022-12-13T07:03:54.841Z,48.38
2022-12-13T07:05:58.378Z,48.34
2022-12-13T07:08:01.400Z,48.83
2022-12-13T07:10:03.068Z,48.92
2022-12-13T07:12:05.019Z,49.18
2022-12-13T07:14:06.845Z,49.99
2022-12-13T07:16:08.436Z,49.79
2022-12-13T07:18:10.219Z,49.88
2022-12-13T07:20:12.321Z,50.07
2022-12-13T07:22:13.921Z,50.19
2022-12-13T07:24:19.912Z,50.45
2022-12-13T07:26:21.413Z,50.36
2022-12-13T07:28:22.998Z,49.94
2022-12-13T07:30:24.564Z,50.02
2022-12-13T07:32:26.415Z,50.18
2022-12-13T07:34:27.890Z,49.67
2022-12-13T07:36:29.451Z,49.77
2022-12-13T07:38:30.909Z,49.55
2022-12-13T07:40:35.210Z,49.89
2022-12-13T07:42:36.826Z,49.13
2022-12-13T07:44:38.343Z,49.32
2022-12-13T07:46:40.062Z,49.52
2022-12-13T07:48:41.648Z,49.65
2022-12-13T07:50:43.233Z,49.57
2022-12-13T07:52:44.743Z,48.93
2022-12-13T07:54:46.371Z,49.18
2022-12-13T07:56:49.290Z,48.96
2022-12-13T07:58:50.854Z,48.53
2022-12-13T08:00:52.412Z,48.96
2022-12-13T08:02:53.964Z,48.65
2022-12-13T08:04:55.720Z,48.48
2022-12-13T08:06:57.255Z,48.57
2022-12-13T08:08:58.904Z,48.63
2022-12-13T08:11:01.934Z,48.75
2022-12-13T08:13:05.101Z,48.40
2022-12-13T08:15:12.371Z,48.32
2022-12-13T08:17:15.491Z,48.46
2022-12-13T08:19:17.042Z,48.39
2022-12-13T08:21:52.917Z,48.41
2022-12-13T08:23:40.207Z,48.26
2022-12-13T08:25:41.982Z,48.58
2022-12-13T08:27:43.497Z,48.44
2022-12-13T08:29:46.404Z,48.49
2022-12-13T08:31:48.277Z,47.98
2022-12-13T08:33:49.785Z,48.30
2022-12-13T08:35:51.252Z,48.06
2022-12-13T08:37:52.786Z,47.65
2022-12-13T08:39:54.223Z,48.05
2022-12-13T08:41:55.811Z,48.40
2022-12-13T08:43:57.390Z,47.82
2022-12-13T08:46:01.181Z,48.45
2022-12-13T08:48:03.245Z,48.63
2022-12-13T08:50:05.791Z,47.95
2022-12-13T08:52:07.560Z,48.31
2022-12-13T08:54:10.582Z,48.85
2022-12-13T08:56:13.422Z,48.75
2022-12-13T08:58:14.940Z,48.78
2022-12-13T09:00:19.256Z,48.33
2022-12-13T09:02:22.205Z,47.92
2022-12-13T09:04:32.057Z,48.26
2022-12-13T09:06:33.845Z,48.59
2022-12-13T09:08:35.601Z,48.42
2022-12-13T09:10:38.916Z,48.25
2022-12-13T09:12:43.322Z,48.95
2022-12-13T09:14:46.176Z,48.93
2022-12-13T09:16:50.743Z,48.85
2022-12-13T09:18:55.095Z,48.45
2022-12-13T09:21:10.950Z,48.81
2022-12-13T09:23:13.939Z,48.31
2022-12-13T09:25:25.297Z,48.41
2022-12-13T09:27:28.358Z,48.50
2022-12-13T09:29:30.350Z,48.44
2022-12-13T09:31:31.900Z,48.82
2022-12-13T09:33:41.551Z,48.72
2022-12-13T09:35:45.307Z,49.47
2022-12-13T09:37:46.828Z,49.49
2022-12-13T09:39:48.414Z,49.91
2022-12-13T09:42:01.411Z,49.65
2022-12-13T09:44:07.354Z,49.75
2022-12-13T09:46:34.842Z,48.91
2022-12-13T09:48:48.536Z,49.17
2022-12-13T09:51:16.685Z,48.66
2022-12-13T09:53:21.675Z,48.84
2022-12-13T09:55:25.851Z,48.61
2022-12-13T09:57:32.348Z,48.43
2022-12-13T09:59:35.906Z,48.44
2022-12-13T10:01:37.836Z,48.30
2022-12-13T10:03:44.382Z,48.35
2022-12-13T10:05:56.433Z,47.96
2022-12-13T10:08:00.045Z,47.93
2022-12-13T10:10:01.785Z,48.44
2022-12-13T10:12:03.810Z,48.34
2022-12-13T10:14:10.348Z,48.34
2022-12-13T10:16:15.971Z,48.65
2022-12-13T10:18:33.114Z,48.25
2022-12-13T10:20:34.820Z,48.41
2022-12-13T10:22:37.888Z,48.05
2022-12-13T10:24:51.057Z,47.55
2022-12-13T10:26:52.742Z,47.91
2022-12-13T10:29:02.903Z,47.62
2022-12-13T10:31:05.210Z,47.38
2022-12-13T10:33:18.762Z,47.31
2022-12-13T10:35:28.241Z,46.96
2022-12-13T10:37:30.773Z,46.65
2022-12-13T10:39:41.673Z,46.05
2022-12-13T10:41:43.309Z,46.13
2022-12-13T10:43:44.881Z,45.54
2022-12-13T10:45:59.625Z,45.74
2022-12-13T10:48:04.285Z,45.83
2022-12-13T10:50:20.866Z,45.47
2022-12-13T10:52:31.063Z,45.48
2022-12-13T10:54:38.488Z,45.20
2022-12-13T10:56:51.768Z,45.16
2022-12-13T10:59:16.691Z,45.04
2022-12-13T11:01:23.363Z,45.81
2022-12-13T11:03:31.314Z,44.99
2022-12-13T11:05:34.675Z,43.91
2022-12-13T11:07:36.214Z,43.14
2022-12-13T11:09:38.924Z,42.46
2022-12-13T11:11:41.145Z,41.84
2022-12-13T11:13:46.899Z,41.85
2022-12-13T11:15:55.488Z,42.55
2022-12-13T11:17:58.823Z,42.11
2022-12-13T11:20:04.493Z,41.65
2022-12-13T11:22:08.523Z,42.08
2022-12-13T11:24:23.032Z,40.95
2022-12-13T11:26:25.667Z,40.59
2022-12-13T11:28:54.459Z,40.62
2022-12-13T11:31:09.319Z,41.46
2022-12-13T11:33:20.554Z,40.54
2022-12-13T11:35:28.875Z,40.30
2022-12-13T11:37:34.863Z,40.88
2022-12-13T11:39:40.264Z,39.91
2022-12-13T11:41:50.263Z,38.48
2022-12-13T11:43:58.745Z,38.54
2022-12-13T11:46:11.157Z,38.46
2022-12-13T11:48:19.654Z,38.28
2022-12-13T11:50:33.461Z,38.57
2022-12-13T11:52:40.312Z,38.73
2022-12-13T11:54:53.272Z,38.20
2022-12-13T11:56:59.604Z,38.09
2022-12-13T11:59:22.464Z,37.83
2022-12-13T12:01:32.401Z,37.73
2022-12-13T12:03:44.701Z,36.95
2022-12-13T12:05:55.977Z,37.56
2022-12-13T12:10:29.091Z,38.95
2022-12-13T12:12:33.770Z,39.74
2022-12-13T12:14:43.491Z,37.88
2022-12-13T12:16:50.967Z,39.70
2022-12-13T12:18:52.910Z,37.14
2022-12-13T12:21:06.875Z,37.25
2022-12-13T12:23:20.314Z,36.17
2022-12-13T12:25:29.142Z,35.48
2022-12-13T12:27:38.872Z,36.04
2022-12-13T12:29:59.850Z,37.18
2022-12-13T12:32:07.822Z,38.68
2022-12-13T12:34:27.740Z,36.36
2022-12-13T12:36:45.332Z,38.34
2022-12-13T12:39:03.502Z,36.67
2022-12-13T12:41:23.229Z,35.63
2022-12-13T12:43:32.405Z,36.23
2022-12-13T12:45:58.006Z,35.81
2022-12-13T12:50:44.385Z,35.74
2022-12-13T12:52:58.667Z,37.58
2022-12-13T12:55:12.040Z,39.09
2022-12-13T12:57:21.775Z,38.41
2022-12-13T12:59:32.367Z,37.97
2022-12-13T13:01:51.210Z,37.30
2022-12-13T13:04:01.755Z,37.88
2022-12-13T13:06:09.704Z,38.70
2022-12-13T13:08:17.332Z,38.56
2022-12-13T13:10:26.043Z,38.18
2022-12-13T13:12:31.018Z,38.70
2022-12-13T13:14:34.202Z,37.97
2022-12-13T13:16:38.167Z,36.48
2022-12-13T13:18:49.562Z,36.35
2022-12-13T13:21:25.391Z,38.70
2022-12-13T13:23:39.483Z,38.79
2022-12-13T13:26:16.049Z,38.96
2022-12-13T13:28:18.045Z,38.79
2022-12-13T13:30:21.805Z,37.51
2022-12-13T13:32:30.447Z,38.39
2022-12-13T13:34:35.095Z,37.31
2022-12-13T13:36:46.108Z,38.28
2022-12-13T13:38:49.293Z,37.64
2022-12-13T13:40:51.112Z,37.58
2022-12-13T13:43:06.326Z,38.39
2022-12-13T13:45:22.332Z,39.06
2022-12-13T13:47:39.239Z,40.37
2022-12-13T13:50:01.460Z,41.26
2022-12-13T13:52:26.184Z,41.72
2022-12-13T13:55:08.953Z,41.85
2022-12-13T13:58:10.509Z,42.50
2022-12-13T14:00:19.300Z,41.73
2022-12-13T14:02:56.487Z,42.41
2022-12-13T14:05:24.558Z,42.44
2022-12-13T14:08:01.083Z,41.83
2022-12-13T14:10:20.316Z,41.17
2022-12-13T14:12:56.979Z,40.29
2022-12-13T14:15:34.262Z,41.87
2022-12-13T14:18:21.427Z,43.20
2022-12-13T14:20:44.878Z,44.75
2022-12-13T14:22:51.913Z,45.20
2022-12-13T14:25:05.543Z,45.77
2022-12-13T14:27:19.663Z,46.11
2022-12-13T14:29:27.894Z,46.00
2022-12-13T14:31:37.031Z,46.29
2022-12-13T14:33:44.214Z,46.95
2022-12-13T14:35:55.453Z,46.74
2022-12-13T14:37:59.345Z,47.21
2022-12-13T14:40:02.232Z,46.98
2022-12-13T14:42:22.072Z,47.34
2022-12-13T14:44:25.444Z,47.20
2022-12-13T14:46:32.355Z,46.90
2022-12-13T14:48:36.160Z,47.28
2022-12-13T14:50:39.510Z,47.07
2022-12-13T14:52:43.215Z,47.16
2022-12-13T14:54:48.507Z,46.95
2022-12-13T14:56:57.587Z,46.74
2022-12-13T14:59:01.002Z,47.18
2022-12-13T15:01:03.126Z,47.45
2022-12-13T15:03:05.807Z,47.47
2022-12-13T15:05:07.731Z,46.91
2022-12-13T15:07:17.749Z,46.76
2022-12-13T15:09:21.145Z,45.93
2022-12-13T15:11:22.873Z,45.35
2022-12-13T15:13:29.212Z,44.19
2022-12-13T15:15:35.555Z,43.68
2022-12-13T15:17:39.388Z,43.75
2022-12-13T15:19:48.725Z,43.48
2022-12-13T15:22:01.555Z,42.44
2022-12-13T15:24:04.572Z,41.23
2022-12-13T15:26:28.898Z,42.51
2022-12-13T15:28:34.783Z,40.64
2022-12-13T15:30:37.084Z,39.33
2022-12-13T15:33:06.207Z,38.96
2022-12-13T15:35:26.378Z,39.09
2022-12-13T15:37:31.354Z,40.04
2022-12-13T15:39:48.045Z,39.54
2022-12-13T15:41:54.211Z,37.29
2022-12-13T15:43:59.858Z,37.26
2022-12-13T15:46:02.106Z,37.15
2022-12-13T15:48:04.598Z,37.57
2022-12-13T15:50:07.541Z,36.41
2022-12-13T15:52:26.941Z,36.26
2022-12-13T15:54:28.549Z,36.99
2022-12-13T15:56:32.396Z,37.03
2022-12-13T15:58:36.841Z,37.53
2022-12-13T16:00:48.702Z,37.58
2022-12-13T16:02:56.396Z,37.20
2022-12-13T16:05:06.870Z,36.69
2022-12-13T16:07:22.323Z,36.63
2022-12-13T16:09:25.769Z,36.60
2022-12-13T16:11:31.177Z,36.55
2022-12-13T16:13:35.914Z,36.94
2022-12-13T16:15:48.311Z,36.51
2022-12-13T16:17:51.375Z,37.00
2022-12-13T16:19:53.432Z,37.23
2022-12-13T16:21:55.060Z,36.14
2022-12-13T16:23:56.532Z,37.08
2022-12-13T16:25:58.108Z,36.65
2022-12-13T16:27:59.648Z,36.69
2022-12-13T16:30:09.009Z,36.23
2022-12-13T16:32:10.900Z,36.68
2022-12-13T16:34:13.191Z,35.89
2022-12-13T16:36:15.374Z,36.49
2022-12-13T16:38:26.083Z,36.30
2022-12-13T16:40:29.798Z,36.99
2022-12-13T16:42:31.433Z,37.34
2022-12-13T16:44:35.212Z,37.23
2022-12-13T16:47:12.459Z,36.84
2022-12-13T16:49:08.766Z,36.34
2022-12-13T16:51:10.512Z,37.79
2022-12-13T16:53:23.435Z,37.27
2022-12-13T16:55:24.986Z,36.79
2022-12-13T16:57:26.535Z,36.70
2022-12-13T16:59:28.024Z,36.56
2022-12-13T17:01:29.548Z,36.78
2022-12-13T17:03:32.476Z,36.87
2022-12-13T17:05:36.234Z,36.18
2022-12-13T17:07:37.800Z,36.64
2022-12-13T17:09:39.500Z,37.56
2022-12-13T17:11:41.157Z,37.31
2022-12-13T17:13:46.129Z,36.03
2022-12-13T17:15:48.251Z,36.60
2022-12-13T17:18:08.081Z,35.78
2022-12-13T17:20:12.975Z,36.37
2022-12-13T17:22:17.490Z,36.39
2022-12-13T17:24:21.172Z,35.84
2022-12-13T17:26:23.553Z,36.31
2022-12-13T17:28:28.340Z,37.04
2022-12-13T17:30:30.005Z,36.44
2022-12-13T17:32:31.558Z,37.01
2022-12-13T17:34:33.158Z,37.20
2022-12-13T17:36:36.155Z,37.04
2022-12-13T17:38:41.136Z,37.18
2022-12-13T17:40:42.699Z,36.74
2022-12-13T17:42:56.315Z,37.09
2022-12-13T17:44:57.844Z,37.44
2022-12-13T17:46:59.957Z,37.73
2022-12-13T17:49:01.482Z,37.67
2022-12-13T17:51:03.627Z,37.51
2022-12-13T17:53:06.574Z,37.82
2022-12-13T17:55:13.549Z,38.26
2022-12-13T17:57:19.500Z,37.96
2022-12-13T17:59:21.545Z,37.58
2022-12-13T18:01:24.521Z,38.12
2022-12-13T18:03:26.591Z,38.53
2022-12-13T18:05:28.288Z,38.34
2022-12-13T18:07:30.029Z,38.47
2022-12-13T18:09:32.914Z,38.18
2022-12-13T18:11:35.503Z,37.95
2022-12-13T18:13:37.652Z,37.68
2022-12-13T18:15:39.271Z,37.91
2022-12-13T18:18:09.961Z,38.18
2022-12-13T18:20:02.452Z,37.92
2022-12-13T18:22:04.088Z,38.28
2022-12-13T18:24:06.749Z,38.60
2022-12-13T18:26:15.394Z,38.11
2022-12-13T18:28:17.662Z,38.33
2022-12-13T18:30:19.183Z,38.00
2022-12-13T18:32:20.647Z,37.93
2022-12-13T18:34:22.201Z,38.10
2022-12-13T18:36:25.104Z,38.01
2022-12-13T18:38:33.011Z,37.47
2022-12-13T18:40:37.623Z,38.00
2022-12-13T18:42:40.545Z,37.95
2022-12-13T18:44:42.059Z,38.11
2022-12-13T18:46:55.932Z,38.85
2022-12-13T18:48:58.401Z,37.99
2022-12-13T18:51:00.228Z,38.10
2022-12-13T18:53:01.788Z,38.17
2022-12-13T18:55:03.711Z,38.39
2022-12-13T18:57:05.359Z,38.07
2022-12-13T18:59:08.233Z,37.85
2022-12-13T19:01:11.878Z,38.23
2022-12-13T19:03:13.444Z,38.27
2022-12-13T19:05:15.378Z,38.02
2022-12-13T19:07:16.985Z,37.56
2022-12-13T19:09:18.518Z,38.59
2022-12-13T19:11:20.659Z,38.25
2022-12-13T19:13:23.336Z,37.17
2022-12-13T19:15:26.537Z,37.09
2022-12-13T19:17:28.256Z,37.11
2022-12-13T19:19:29.779Z,37.20
2022-12-13T19:21:31.285Z,37.35
2022-12-13T19:23:32.885Z,37.82
2022-12-13T19:25:34.486Z,38.31
2022-12-13T19:27:36.294Z,38.22
2022-12-13T19:29:37.820Z,37.86
2022-12-13T19:31:40.777Z,38.05
2022-12-13T19:33:43.199Z,37.86
2022-12-13T19:35:45.942Z,37.49
2022-12-13T19:37:47.479Z,38.21
2022-12-13T19:39:49.028Z,37.68
2022-12-13T19:41:50.770Z,37.33
2022-12-13T19:43:52.954Z,37.05
2022-12-13T19:45:54.809Z,37.38
2022-12-13T19:47:57.719Z,37.15
2022-12-13T19:49:59.290Z,37.39
2022-12-13T19:52:00.852Z,37.40
2022-12-13T19:54:02.414Z,37.17
2022-12-13T19:56:08.089Z,37.17
2022-12-13T19:58:09.649Z,37.82
2022-12-13T20:00:12.697Z,37.57
2022-12-13T20:02:14.709Z,37.69
2022-12-13T20:04:17.683Z,37.33
2022-12-13T20:06:20.903Z,37.47
2022-12-13T20:08:22.487Z,38.02
2022-12-13T20:10:24.062Z,36.99
2022-12-13T20:12:25.604Z,37.74
2022-12-13T20:14:27.485Z,37.53
2022-12-13T20:16:29.100Z,37.77
2022-12-13T20:18:30.953Z,37.36
2022-12-13T20:21:02.263Z,37.67
2022-12-13T20:22:55.623Z,38.07
2022-12-13T20:24:57.123Z,37.51
2022-12-13T20:26:58.663Z,37.63
2022-12-13T20:29:00.684Z,37.95
2022-12-13T20:31:04.392Z,37.94
2022-12-13T20:33:05.992Z,38.11
2022-12-13T20:35:08.047Z,38.40
2022-12-13T20:37:10.943Z,38.39
2022-12-13T20:39:13.680Z,38.26
2022-12-13T20:41:15.230Z,37.92
2022-12-13T20:43:16.883Z,37.88
2022-12-13T20:45:18.463Z,37.83
2022-12-13T20:47:20.071Z,38.17
2022-12-13T20:49:21.643Z,38.06
2022-12-13T20:51:25.952Z,38.76
2022-12-13T20:53:30.984Z,37.89
2022-12-13T20:55:34.656Z,38.51
2022-12-13T20:57:36.247Z,38.15
2022-12-13T20:59:37.832Z,38.64
2022-12-13T21:01:40.968Z,38.89
2022-12-13T21:03:43.155Z,38.49
2022-12-13T21:05:44.729Z,37.31
2022-12-13T21:07:48.343Z,37.36
2022-12-13T21:09:51.380Z,37.92
2022-12-13T21:11:52.919Z,37.07
2022-12-13T21:14:03.827Z,37.25
2022-12-13T21:16:09.157Z,37.95
2022-12-13T21:18:10.673Z,36.69
2022-12-13T21:20:12.300Z,36.68
2022-12-13T21:22:13.897Z,36.74
2022-12-13T21:24:17.061Z,37.02
2022-12-13T21:26:20.385Z,36.79
2022-12-13T21:28:22.005Z,36.64
2022-12-13T21:30:23.583Z,36.05
2022-12-13T21:32:25.224Z,36.69
2022-12-13T21:34:26.824Z,37.36
2022-12-13T21:36:30.232Z,37.25
2022-12-13T21:38:31.746Z,36.83
2022-12-13T21:40:33.387Z,37.02
2022-12-13T21:42:36.363Z,36.96
2022-12-13T21:44:37.976Z,37.48
2022-12-13T21:49:01.191Z,37.93
2022-12-13T21:51:03.924Z,37.57
2022-12-13T21:53:05.475Z,37.76
2022-12-13T21:55:38.003Z,37.24
2022-12-13T21:57:29.903Z,36.60
2022-12-13T21:59:32.851Z,36.50
2022-12-13T22:01:34.618Z,36.27
2022-12-13T22:03:36.175Z,37.35
2022-12-13T22:05:40.776Z,37.05
2022-12-13T22:07:42.294Z,36.82
2022-12-13T22:09:44.803Z,37.57
2022-12-13T22:11:46.389Z,36.66
2022-12-13T22:13:48.285Z,37.00
2022-12-13T22:15:51.445Z,36.00
2022-12-13T22:17:52.959Z,36.15
2022-12-13T22:19:54.888Z,36.28
2022-12-13T22:21:56.463Z,36.71
2022-12-13T22:23:58.412Z,36.32
2022-12-13T22:26:05.696Z,36.14
2022-12-13T22:28:07.250Z,36.86
2022-12-13T22:30:09.485Z,37.19
2022-12-13T22:32:12.426Z,37.16
2022-12-13T22:34:14.173Z,37.59
2022-12-13T22:36:15.915Z,38.58
2022-12-13T22:38:17.463Z,37.15
2022-12-13T22:40:19.354Z,37.24
2022-12-13T22:42:21.177Z,37.11
2022-12-13T22:44:23.050Z,37.63
2022-12-13T22:46:24.888Z,36.34
2022-12-13T22:48:28.031Z,36.91
2022-12-13T22:50:29.915Z,36.07
2022-12-13T22:52:33.979Z,36.65
2022-12-13T22:54:35.915Z,36.64
2022-12-13T22:56:37.772Z,37.04
2022-12-13T22:58:40.311Z,36.87
2022-12-13T23:00:41.849Z,36.98
2022-12-13T23:02:43.585Z,36.99
2022-12-13T23:04:47.582Z,37.15
2022-12-13T23:06:49.206Z,37.05
2022-12-13T23:08:52.766Z,37.18
2022-12-13T23:10:58.797Z,37.17
2022-12-13T23:13:00.356Z,37.08
2022-12-13T23:15:01.939Z,37.44
2022-12-13T23:17:04.228Z,36.89
2022-12-13T23:19:39.773Z,37.10
2022-12-13T23:21:30.451Z,36.58
2022-12-13T23:23:32.901Z,36.32
2022-12-13T23:25:34.484Z,36.73
2022-12-13T23:27:36.116Z,36.53
2022-12-13T23:29:38.140Z,36.52
2022-12-13T23:31:41.691Z,36.55
2022-12-13T23:33:43.807Z,36.70
2022-12-13T23:35:45.321Z,36.57
2022-12-13T23:37:48.525Z,37.04
2022-12-13T23:39:50.199Z,36.30
2022-12-13T23:41:51.732Z,36.58
2022-12-13T23:43:55.392Z,36.51
2022-12-13T23:46:00.943Z,36.74
2022-12-13T23:48:02.470Z,36.35
2022-12-13T23:50:04.507Z,36.87
2022-12-13T23:52:05.965Z,36.54
2022-12-13T23:54:08.827Z,36.55
2022-12-13T23:56:12.642Z,36.96
2022-12-13T23:58:16.142Z,36.83
